Gillette, WY

10:27 PM MST on January 24, 2015 (GMT -0700)
RAWS ECHETA WY US | Change Station
CLOSE
Current Station
Personal Weather Station
Location: Gillette, WY
Elevation: 4396 ft
Nearby Weather Stations

Elev 4396 ft 44.47 °N, 105.84 °W | Updated 36 minutes ago

Partly Cloudy
Partly Cloudy
35 °F
Feels Like 29 °F
N
7
Wind Variable Wind from NW
Gusts 27.0 mph

Today
High -- | Low -- °F
--% Chance of Precip.
Yesterday
High -- | Low -- °F
Precip. -- in
7:29 AM 5:00 PM
Waxing Crescent, 28% visible
Pressure 30.14 in
Visibility 10.0 miles
Clouds Mostly Cloudy 8000 ft
Windchill 29 °F
Dew Point 27 °F
Humidity 72%
Rainfall 0.02 in
Snow Depth Not available.
UV 0 out of 12
Pollen .10 out of 12
Air Quality Not available.
Flu Activity Not available.
METAR KGCC 250453Z AUTO 29012KT 10SM BKN080 01/M03 A3011 RMK AO2 SLP206 T00111028 TSNO

More Conditions Fewer Conditions

Pressure 30.14 in
Visibility 10.0 miles
Clouds Mostly Cloudy 8000 ft
Windchill 29 °F
Dew Point 27 °F
Humidity 72%
Rainfall 0.02 in
Snow Depth Not available.
UV 0 out of 12
Pollen .10 out of 12
Air Quality Not available.
Flu Activity Not available.
METAR KGCC 250453Z AUTO 29012KT 10SM BKN080 01/M03 A3011 RMK AO2 SLP206 T00111028 TSNO

More Conditions Fewer Conditions

10-Day Weather Forecast

Almanac

Astronomy

Jan. 24, 2015 Rise Set
Actual Time
Civil Twilight
Nautical Twilight
Astronomical Twilight
Moon
Length of Visible Light
Length of Day
Tomorrow will be .
, % of the Moon is Illuminated

Today's Extremes

State Highs State Lows

Community

WunderPhotos

Upload Photos

1,789,843 photos uploaded!

WunderBlogs® & News

Nearby

Air Quality

  Air Quality AQ Index Pollutant
Not available.

Snow Depth

Station Depth Elevation

Earthquake Activity

City Distance Mag. Time & Date
Minimum magnitude displayed is 2.5.

Coastal Water Temperatures

Place Temperature

Nearby Weather Stations